sensor_id;sensor_type;location;lat;lon;timestamp;temperature;humidity
16243;DHT22;11719;51.052;6.982;2022-09-27T00:00:39;18.50;99.90
16243;DHT22;11719;51.052;6.982;2022-09-27T00:03:09;18.50;99.90
16243;DHT22;11719;51.052;6.982;2022-09-27T00:05:35;18.40;99.90
16243;DHT22;11719;51.052;6.982;2022-09-27T00:08:02;18.50;99.90
16243;DHT22;11719;51.052;6.982;2022-09-27T00:10:28;18.40;99.90
16243;DHT22;11719;51.052;6.982;2022-09-27T00:12:54;18.40;99.90
16243;DHT22;11719;51.052;6.982;2022-09-27T00:15:20;18.50;99.90
16243;DHT22;11719;51.052;6.982;2022-09-27T00:17:46;18.50;99.90
16243;DHT22;11719;51.052;6.982;2022-09-27T00:20:17;18.50;99.90
16243;DHT22;11719;51.052;6.982;2022-09-27T00:22:47;18.50;99.90
16243;DHT22;11719;51.052;6.982;2022-09-27T00:25:14;18.50;99.90
16243;DHT22;11719;51.052;6.982;2022-09-27T00:27:40;18.50;99.90
16243;DHT22;11719;51.052;6.982;2022-09-27T00:30:07;18.50;99.90
16243;DHT22;11719;51.052;6.982;2022-09-27T00:32:34;18.50;99.90
16243;DHT22;11719;51.052;6.982;2022-09-27T00:35:00;18.50;99.90
16243;DHT22;11719;51.052;6.982;2022-09-27T00:37:26;18.40;99.90
16243;DHT22;11719;51.052;6.982;2022-09-27T00:39:52;18.40;99.90
16243;DHT22;11719;51.052;6.982;2022-09-27T00:42:17;18.40;99.90
16243;DHT22;11719;51.052;6.982;2022-09-27T00:47:48;18.40;99.90
16243;DHT22;11719;51.052;6.982;2022-09-27T00:50:25;18.30;99.90
16243;DHT22;11719;51.052;6.982;2022-09-27T00:56:00;18.40;99.90
16243;DHT22;11719;51.052;6.982;2022-09-27T00:58:32;18.40;99.90
16243;DHT22;11719;51.052;6.982;2022-09-27T01:01:06;18.30;99.90
16243;DHT22;11719;51.052;6.982;2022-09-27T01:03:49;18.30;99.90
16243;DHT22;11719;51.052;6.982;2022-09-27T01:06:20;18.40;99.90
16243;DHT22;11719;51.052;6.982;2022-09-27T01:08:47;18.30;99.90
16243;DHT22;11719;51.052;6.982;2022-09-27T01:14:07;18.30;99.90
16243;DHT22;11719;51.052;6.982;2022-09-27T01:28:17;18.30;99.90
16243;DHT22;11719;51.052;6.982;2022-09-27T01:34:50;18.40;99.90
16243;DHT22;11719;51.052;6.982;2022-09-27T01:43:16;18.50;99.90
16243;DHT22;11719;51.052;6.982;2022-09-27T01:46:11;18.50;99.90
16243;DHT22;11719;51.052;6.982;2022-09-27T01:48:45;18.50;99.90
16243;DHT22;11719;51.052;6.982;2022-09-27T01:51:19;18.50;99.90
16243;DHT22;11719;51.052;6.982;2022-09-27T01:53:51;18.50;99.90
16243;DHT22;11719;51.052;6.982;2022-09-27T01:56:34;18.60;99.90
16243;DHT22;11719;51.052;6.982;2022-09-27T01:59:13;18.50;99.90
16243;DHT22;11719;51.052;6.982;2022-09-27T02:01:45;18.60;99.90
16243;DHT22;11719;51.052;6.982;2022-09-27T02:04:18;18.60;99.90
16243;DHT22;11719;51.052;6.982;2022-09-27T02:06:48;18.50;99.90
16243;DHT22;11719;51.052;6.982;2022-09-27T02:09:34;18.30;99.90
16243;DHT22;11719;51.052;6.982;2022-09-27T02:12:06;18.30;99.90
16243;DHT22;11719;51.052;6.982;2022-09-27T02:14:52;18.40;99.90
16243;DHT22;11719;51.052;6.982;2022-09-27T02:23:26;18.50;99.90
16243;DHT22;11719;51.052;6.982;2022-09-27T02:26:09;18.50;99.90
16243;DHT22;11719;51.052;6.982;2022-09-27T02:28:51;18.50;99.90
16243;DHT22;11719;51.052;6.982;2022-09-27T02:31:28;18.30;99.90
16243;DHT22;11719;51.052;6.982;2022-09-27T02:34:15;18.40;99.90
16243;DHT22;11719;51.052;6.982;2022-09-27T02:36:47;18.40;99.90
16243;DHT22;11719;51.052;6.982;2022-09-27T02:39:13;18.30;99.90
16243;DHT22;11719;51.052;6.982;2022-09-27T02:41:39;18.40;99.90
16243;DHT22;11719;51.052;6.982;2022-09-27T02:44:09;18.40;99.90
16243;DHT22;11719;51.052;6.982;2022-09-27T02:47:02;18.50;99.90
16243;DHT22;11719;51.052;6.982;2022-09-27T02:49:54;18.50;99.90
16243;DHT22;11719;51.052;6.982;2022-09-27T03:04:39;18.30;99.90
16243;DHT22;11719;51.052;6.982;2022-09-27T03:07:26;18.40;99.90
16243;DHT22;11719;51.052;6.982;2022-09-27T03:09:53;18.40;99.90
16243;DHT22;11719;51.052;6.982;2022-09-27T03:12:20;18.50;99.90
16243;DHT22;11719;51.052;6.982;2022-09-27T03:14:58;18.50;99.90
16243;DHT22;11719;51.052;6.982;2022-09-27T03:17:24;18.50;99.90
16243;DHT22;11719;51.052;6.982;2022-09-27T03:19:51;18.50;99.90
16243;DHT22;11719;51.052;6.982;2022-09-27T03:22:17;18.40;99.90
16243;DHT22;11719;51.052;6.982;2022-09-27T03:24:43;18.50;99.90
16243;DHT22;11719;51.052;6.982;2022-09-27T03:27:11;18.40;99.90
16243;DHT22;11719;51.052;6.982;2022-09-27T03:29:37;18.50;99.90
16243;DHT22;11719;51.052;6.982;2022-09-27T03:32:03;18.50;99.90
16243;DHT22;11719;51.052;6.982;2022-09-27T03:34:29;18.50;99.90
16243;DHT22;11719;51.052;6.982;2022-09-27T03:36:55;18.40;99.90
16243;DHT22;11719;51.052;6.982;2022-09-27T03:39:21;18.50;99.90
16243;DHT22;11719;51.052;6.982;2022-09-27T03:41:47;18.40;99.90
16243;DHT22;11719;51.052;6.982;2022-09-27T03:44:12;18.40;99.90
16243;DHT22;11719;51.052;6.982;2022-09-27T03:46:38;18.40;99.90
16243;DHT22;11719;51.052;6.982;2022-09-27T03:49:04;18.20;99.90
16243;DHT22;11719;51.052;6.982;2022-09-27T03:51:30;18.20;99.90
16243;DHT22;11719;51.052;6.982;2022-09-27T03:53:56;18.30;99.90
16243;DHT22;11719;51.052;6.982;2022-09-27T03:56:22;18.40;99.90
16243;DHT22;11719;51.052;6.982;2022-09-27T03:58:48;18.30;99.90
16243;DHT22;11719;51.052;6.982;2022-09-27T04:01:13;18.30;99.90
16243;DHT22;11719;51.052;6.982;2022-09-27T04:03:40;18.30;99.90
16243;DHT22;11719;51.052;6.982;2022-09-27T04:06:06;18.30;99.90
16243;DHT22;11719;51.052;6.982;2022-09-27T04:08:32;18.30;99.90
16243;DHT22;11719;51.052;6.982;2022-09-27T04:10:58;18.40;99.90
16243;DHT22;11719;51.052;6.982;2022-09-27T04:13:24;18.40;99.90
16243;DHT22;11719;51.052;6.982;2022-09-27T04:15:51;18.40;99.90
16243;DHT22;11719;51.052;6.982;2022-09-27T04:18:17;18.40;99.90
16243;DHT22;11719;51.052;6.982;2022-09-27T04:20:43;18.40;99.90
16243;DHT22;11719;51.052;6.982;2022-09-27T04:23:09;18.50;99.90
16243;DHT22;11719;51.052;6.982;2022-09-27T04:25:34;18.50;99.90
16243;DHT22;11719;51.052;6.982;2022-09-27T04:28:01;18.50;99.90
16243;DHT22;11719;51.052;6.982;2022-09-27T04:30:27;18.50;99.90
16243;DHT22;11719;51.052;6.982;2022-09-27T04:32:54;18.40;99.90
16243;DHT22;11719;51.052;6.982;2022-09-27T04:35:19;18.50;99.90
16243;DHT22;11719;51.052;6.982;2022-09-27T04:38:04;18.50;99.90
16243;DHT22;11719;51.052;6.982;2022-09-27T04:40:32;18.40;99.90
16243;DHT22;11719;51.052;6.982;2022-09-27T04:42:59;18.40;99.90
16243;DHT22;11719;51.052;6.982;2022-09-27T04:45:24;18.40;99.90
16243;DHT22;11719;51.052;6.982;2022-09-27T04:47:50;18.30;99.90
16243;DHT22;11719;51.052;6.982;2022-09-27T04:50:17;18.40;99.90
16243;DHT22;11719;51.052;6.982;2022-09-27T04:52:49;18.30;99.90
16243;DHT22;11719;51.052;6.982;2022-09-27T04:55:16;18.20;99.90
16243;DHT22;11719;51.052;6.982;2022-09-27T04:57:43;18.30;99.90
16243;DHT22;11719;51.052;6.982;2022-09-27T05:00:09;18.30;99.90
16243;DHT22;11719;51.052;6.982;2022-09-27T05:02:36;18.40;99.90
16243;DHT22;11719;51.052;6.982;2022-09-27T05:05:02;18.40;99.90
16243;DHT22;11719;51.052;6.982;2022-09-27T05:07:28;18.20;99.90
16243;DHT22;11719;51.052;6.982;2022-09-27T05:09:54;18.20;99.90
16243;DHT22;11719;51.052;6.982;2022-09-27T05:12:21;18.20;99.90
16243;DHT22;11719;51.052;6.982;2022-09-27T05:14:47;18.10;99.90
16243;DHT22;11719;51.052;6.982;2022-09-27T05:17:13;17.90;99.90
16243;DHT22;11719;51.052;6.982;2022-09-27T05:19:39;17.90;99.90
16243;DHT22;11719;51.052;6.982;2022-09-27T05:22:05;17.80;99.90
16243;DHT22;11719;51.052;6.982;2022-09-27T05:24:32;17.90;99.90
16243;DHT22;11719;51.052;6.982;2022-09-27T05:27:01;17.80;99.90
16243;DHT22;11719;51.052;6.982;2022-09-27T05:29:27;17.90;99.90
16243;DHT22;11719;51.052;6.982;2022-09-27T05:31:53;17.90;99.90
16243;DHT22;11719;51.052;6.982;2022-09-27T05:34:19;18.00;99.90
16243;DHT22;11719;51.052;6.982;2022-09-27T05:36:48;18.00;99.90
16243;DHT22;11719;51.052;6.982;2022-09-27T05:39:14;18.10;99.90
16243;DHT22;11719;51.052;6.982;2022-09-27T05:41:44;18.20;99.90
16243;DHT22;11719;51.052;6.982;2022-09-27T05:44:11;18.20;99.90
16243;DHT22;11719;51.052;6.982;2022-09-27T05:46:39;18.20;99.90
16243;DHT22;11719;51.052;6.982;2022-09-27T05:49:05;18.20;99.90
16243;DHT22;11719;51.052;6.982;2022-09-27T05:51:31;18.10;99.90
16243;DHT22;11719;51.052;6.982;2022-09-27T05:53:57;18.10;99.90
16243;DHT22;11719;51.052;6.982;2022-09-27T05:56:23;18.20;99.90
16243;DHT22;11719;51.052;6.982;2022-09-27T05:58:52;18.30;99.90
16243;DHT22;11719;51.052;6.982;2022-09-27T06:01:18;18.20;99.90
16243;DHT22;11719;51.052;6.982;2022-09-27T06:03:44;18.10;99.90
16243;DHT22;11719;51.052;6.982;2022-09-27T06:06:10;18.10;99.90
16243;DHT22;11719;51.052;6.982;2022-09-27T06:08:37;18.20;99.90
16243;DHT22;11719;51.052;6.982;2022-09-27T06:11:09;18.20;99.90
16243;DHT22;11719;51.052;6.982;2022-09-27T06:13:37;18.10;99.90
16243;DHT22;11719;51.052;6.982;2022-09-27T06:16:05;18.10;99.90
16243;DHT22;11719;51.052;6.982;2022-09-27T06:18:32;18.00;99.90
16243;DHT22;11719;51.052;6.982;2022-09-27T06:20:59;18.10;99.90
16243;DHT22;11719;51.052;6.982;2022-09-27T06:23:25;18.10;99.90
16243;DHT22;11719;51.052;6.982;2022-09-27T06:25:52;18.00;99.90
16243;DHT22;11719;51.052;6.982;2022-09-27T06:28:19;18.00;99.90
16243;DHT22;11719;51.052;6.982;2022-09-27T06:30:48;18.10;99.90
16243;DHT22;11719;51.052;6.982;2022-09-27T06:33:17;18.10;99.90
16243;DHT22;11719;51.052;6.982;2022-09-27T06:35:44;18.10;99.90
16243;DHT22;11719;51.052;6.982;2022-09-27T06:38:13;18.00;99.90
16243;DHT22;11719;51.052;6.982;2022-09-27T06:40:41;18.10;99.90
16243;DHT22;11719;51.052;6.982;2022-09-27T06:43:14;17.90;99.90
16243;DHT22;11719;51.052;6.982;2022-09-27T06:45:42;17.70;99.90
16243;DHT22;11719;51.052;6.982;2022-09-27T06:48:10;17.50;99.90
16243;DHT22;11719;51.052;6.982;2022-09-27T06:50:39;17.80;99.90
16243;DHT22;11719;51.052;6.982;2022-09-27T06:53:07;18.00;99.90
16243;DHT22;11719;51.052;6.982;2022-09-27T06:55:35;18.10;99.90
16243;DHT22;11719;51.052;6.982;2022-09-27T06:58:02;18.20;99.90
16243;DHT22;11719;51.052;6.982;2022-09-27T07:00:51;18.40;99.90
16243;DHT22;11719;51.052;6.982;2022-09-27T07:03:19;18.40;99.90
16243;DHT22;11719;51.052;6.982;2022-09-27T07:05:58;18.30;99.90
16243;DHT22;11719;51.052;6.982;2022-09-27T07:08:25;18.40;99.90
16243;DHT22;11719;51.052;6.982;2022-09-27T07:11:00;18.50;99.90
16243;DHT22;11719;51.052;6.982;2022-09-27T07:13:28;18.50;99.90
16243;DHT22;11719;51.052;6.982;2022-09-27T07:15:59;18.50;99.90
16243;DHT22;11719;51.052;6.982;2022-09-27T07:18:26;18.50;99.90
16243;DHT22;11719;51.052;6.982;2022-09-27T07:20:52;18.60;99.90
16243;DHT22;11719;51.052;6.982;2022-09-27T07:23:19;18.60;99.90
16243;DHT22;11719;51.052;6.982;2022-09-27T07:25:45;18.40;99.90
16243;DHT22;11719;51.052;6.982;2022-09-27T07:28:14;18.30;99.90
16243;DHT22;11719;51.052;6.982;2022-09-27T07:30:41;18.40;99.90
16243;DHT22;11719;51.052;6.982;2022-09-27T07:33:08;18.40;99.90
16243;DHT22;11719;51.052;6.982;2022-09-27T07:35:39;18.40;99.90
16243;DHT22;11719;51.052;6.982;2022-09-27T07:38:06;18.40;99.90
16243;DHT22;11719;51.052;6.982;2022-09-27T07:40:38;18.50;99.90
16243;DHT22;11719;51.052;6.982;2022-09-27T07:43:05;18.60;99.90
16243;DHT22;11719;51.052;6.982;2022-09-27T07:45:32;18.60;99.90
16243;DHT22;11719;51.052;6.982;2022-09-27T07:47:58;18.40;99.90
16243;DHT22;11719;51.052;6.982;2022-09-27T07:50:24;18.50;99.90
16243;DHT22;11719;51.052;6.982;2022-09-27T07:52:51;18.40;99.90
16243;DHT22;11719;51.052;6.982;2022-09-27T07:55:18;18.60;99.90
16243;DHT22;11719;51.052;6.982;2022-09-27T07:57:44;18.50;99.90
16243;DHT22;11719;51.052;6.982;2022-09-27T08:00:13;18.50;99.90
16243;DHT22;11719;51.052;6.982;2022-09-27T08:02:41;18.50;99.90
16243;DHT22;11719;51.052;6.982;2022-09-27T08:05:08;18.40;99.90
16243;DHT22;11719;51.052;6.982;2022-09-27T08:07:35;18.30;99.90
16243;DHT22;11719;51.052;6.982;2022-09-27T08:10:01;18.40;99.90
16243;DHT22;11719;51.052;6.982;2022-09-27T08:12:27;18.40;99.90
16243;DHT22;11719;51.052;6.982;2022-09-27T08:14:53;18.40;99.90
16243;DHT22;11719;51.052;6.982;2022-09-27T08:17:23;18.40;99.90
16243;DHT22;11719;51.052;6.982;2022-09-27T08:19:48;18.50;99.90
16243;DHT22;11719;51.052;6.982;2022-09-27T08:22:15;18.40;99.90
16243;DHT22;11719;51.052;6.982;2022-09-27T08:24:41;18.50;99.90
16243;DHT22;11719;51.052;6.982;2022-09-27T08:27:07;18.60;99.90
16243;DHT22;11719;51.052;6.982;2022-09-27T08:29:36;18.60;99.90
16243;DHT22;11719;51.052;6.982;2022-09-27T08:32:02;18.60;99.90
16243;DHT22;11719;51.052;6.982;2022-09-27T08:34:28;18.50;99.90
16243;DHT22;11719;51.052;6.982;2022-09-27T08:36:54;18.50;99.90
16243;DHT22;11719;51.052;6.982;2022-09-27T08:39:21;18.50;99.90
16243;DHT22;11719;51.052;6.982;2022-09-27T08:42:00;18.40;99.90
16243;DHT22;11719;51.052;6.982;2022-09-27T08:45:06;18.40;99.90
16243;DHT22;11719;51.052;6.982;2022-09-27T08:47:41;18.40;99.90
16243;DHT22;11719;51.052;6.982;2022-09-27T08:50:32;18.50;99.90
16243;DHT22;11719;51.052;6.982;2022-09-27T08:53:29;18.30;99.90
16243;DHT22;11719;51.052;6.982;2022-09-27T08:55:59;18.40;99.90
16243;DHT22;11719;51.052;6.982;2022-09-27T08:58:47;18.40;99.90
16243;DHT22;11719;51.052;6.982;2022-09-27T09:01:15;18.50;99.90
16243;DHT22;11719;51.052;6.982;2022-09-27T09:03:52;18.50;99.90
16243;DHT22;11719;51.052;6.982;2022-09-27T09:15:19;18.40;99.90
16243;DHT22;11719;51.052;6.982;2022-09-27T09:18:06;18.50;99.90
16243;DHT22;11719;51.052;6.982;2022-09-27T09:27:05;18.50;99.90
16243;DHT22;11719;51.052;6.982;2022-09-27T09:34:58;18.40;99.90
16243;DHT22;11719;51.052;6.982;2022-09-27T09:37:48;18.50;99.90
16243;DHT22;11719;51.052;6.982;2022-09-27T09:43:38;18.30;99.90
16243;DHT22;11719;51.052;6.982;2022-09-27T09:46:39;18.50;99.90
16243;DHT22;11719;51.052;6.982;2022-09-27T09:49:26;18.50;99.90
16243;DHT22;11719;51.052;6.982;2022-09-27T09:52:01;18.40;99.90
16243;DHT22;11719;51.052;6.982;2022-09-27T09:54:47;18.50;99.90
16243;DHT22;11719;51.052;6.982;2022-09-27T09:57:39;18.40;99.90
16243;DHT22;11719;51.052;6.982;2022-09-27T10:00:16;18.40;99.90
16243;DHT22;11719;51.052;6.982;2022-09-27T10:02:44;18.10;99.90
16243;DHT22;11719;51.052;6.982;2022-09-27T10:05:17;18.20;99.90
16243;DHT22;11719;51.052;6.982;2022-09-27T10:07:46;18.30;99.90
16243;DHT22;11719;51.052;6.982;2022-09-27T10:10:16;18.40;99.90
16243;DHT22;11719;51.052;6.982;2022-09-27T10:12:43;18.40;99.90
16243;DHT22;11719;51.052;6.982;2022-09-27T10:15:17;18.40;99.90
16243;DHT22;11719;51.052;6.982;2022-09-27T10:17:53;18.50;99.90
16243;DHT22;11719;51.052;6.982;2022-09-27T10:22:52;18.30;99.90
16243;DHT22;11719;51.052;6.982;2022-09-27T10:25:20;18.40;99.90
16243;DHT22;11719;51.052;6.982;2022-09-27T10:27:49;18.40;99.90
16243;DHT22;11719;51.052;6.982;2022-09-27T10:30:35;18.30;99.90
16243;DHT22;11719;51.052;6.982;2022-09-27T10:33:14;18.40;99.90
16243;DHT22;11719;51.052;6.982;2022-09-27T10:35:45;18.20;99.90
16243;DHT22;11719;51.052;6.982;2022-09-27T10:38:24;18.20;99.90
16243;DHT22;11719;51.052;6.982;2022-09-27T10:41:32;18.30;99.90
16243;DHT22;11719;51.052;6.982;2022-09-27T10:46:47;18.40;99.90
16243;DHT22;11719;51.052;6.982;2022-09-27T10:51:59;18.60;99.90
16243;DHT22;11719;51.052;6.982;2022-09-27T10:55:22;18.60;99.90
16243;DHT22;11719;51.052;6.982;2022-09-27T10:57:51;18.40;99.90
16243;DHT22;11719;51.052;6.982;2022-09-27T11:00:29;18.30;99.90
16243;DHT22;11719;51.052;6.982;2022-09-27T11:03:00;18.30;99.90
16243;DHT22;11719;51.052;6.982;2022-09-27T11:05:37;18.30;99.90
16243;DHT22;11719;51.052;6.982;2022-09-27T11:08:19;18.40;99.90
16243;DHT22;11719;51.052;6.982;2022-09-27T11:13:38;18.60;99.90
16243;DHT22;11719;51.052;6.982;2022-09-27T11:19:19;18.50;99.90
16243;DHT22;11719;51.052;6.982;2022-09-27T11:34:10;18.50;99.90
16243;DHT22;11719;51.052;6.982;2022-09-27T11:51:02;18.70;99.90
16243;DHT22;11719;51.052;6.982;2022-09-27T11:54:02;18.70;99.90
16243;DHT22;11719;51.052;6.982;2022-09-27T12:05:31;18.80;99.90
16243;DHT22;11719;51.052;6.982;2022-09-27T12:11:24;18.80;99.90
16243;DHT22;11719;51.052;6.982;2022-09-27T12:14:23;18.80;99.90
16243;DHT22;11719;51.052;6.982;2022-09-27T12:17:04;18.70;99.90
16243;DHT22;11719;51.052;6.982;2022-09-27T12:19:38;18.80;99.90
16243;DHT22;11719;51.052;6.982;2022-09-27T12:22:13;18.80;99.90
16243;DHT22;11719;51.052;6.982;2022-09-27T12:24:43;18.60;99.90
16243;DHT22;11719;51.052;6.982;2022-09-27T12:27:14;18.70;99.90
16243;DHT22;11719;51.052;6.982;2022-09-27T12:29:57;18.80;99.90
16243;DHT22;11719;51.052;6.982;2022-09-27T12:32:47;18.80;99.90
16243;DHT22;11719;51.052;6.982;2022-09-27T12:35:21;18.80;99.90
16243;DHT22;11719;51.052;6.982;2022-09-27T12:38:13;18.90;99.90
16243;DHT22;11719;51.052;6.982;2022-09-27T12:40:51;18.80;99.90
16243;DHT22;11719;51.052;6.982;2022-09-27T12:43:28;18.70;99.90
16243;DHT22;11719;51.052;6.982;2022-09-27T12:46:18;18.80;99.90
16243;DHT22;11719;51.052;6.982;2022-09-27T12:49:14;18.80;99.90
16243;DHT22;11719;51.052;6.982;2022-09-27T12:51:52;18.70;99.90
16243;DHT22;11719;51.052;6.982;2022-09-27T12:54:41;18.70;99.90
16243;DHT22;11719;51.052;6.982;2022-09-27T13:00:21;17.70;99.90
16243;DHT22;11719;51.052;6.982;2022-09-27T13:05:38;17.60;99.90
16243;DHT22;11719;51.052;6.982;2022-09-27T13:08:33;17.70;99.90
16243;DHT22;11719;51.052;6.982;2022-09-27T13:14:31;17.70;99.90
16243;DHT22;11719;51.052;6.982;2022-09-27T13:16:59;17.60;99.90
16243;DHT22;11719;51.052;6.982;2022-09-27T13:22:01;17.70;99.90
16243;DHT22;11719;51.052;6.982;2022-09-27T13:29:48;17.70;99.90
16243;DHT22;11719;51.052;6.982;2022-09-27T13:32:22;17.50;99.90
16243;DHT22;11719;51.052;6.982;2022-09-27T13:34:54;17.60;99.90
16243;DHT22;11719;51.052;6.982;2022-09-27T13:37:54;17.30;99.90
16243;DHT22;11719;51.052;6.982;2022-09-27T13:40:33;17.20;99.90
16243;DHT22;11719;51.052;6.982;2022-09-27T13:54:04;17.80;99.90
16243;DHT22;11719;51.052;6.982;2022-09-27T14:04:48;18.10;99.90
16243;DHT22;11719;51.052;6.982;2022-09-27T14:07:20;18.20;99.90
16243;DHT22;11719;51.052;6.982;2022-09-27T14:09:52;18.20;99.90
16243;DHT22;11719;51.052;6.982;2022-09-27T14:12:27;18.30;99.90
16243;DHT22;11719;51.052;6.982;2022-09-27T14:15:02;18.40;99.90
16243;DHT22;11719;51.052;6.982;2022-09-27T14:17:29;18.50;99.90
16243;DHT22;11719;51.052;6.982;2022-09-27T14:19:57;18.50;99.90
16243;DHT22;11719;51.052;6.982;2022-09-27T14:22:24;18.50;99.90
16243;DHT22;11719;51.052;6.982;2022-09-27T14:24:53;18.50;99.90
16243;DHT22;11719;51.052;6.982;2022-09-27T14:27:20;18.50;99.90
16243;DHT22;11719;51.052;6.982;2022-09-27T14:29:48;18.50;99.90
16243;DHT22;11719;51.052;6.982;2022-09-27T14:32:31;18.60;99.90
16243;DHT22;11719;51.052;6.982;2022-09-27T14:35:22;18.70;99.90
16243;DHT22;11719;51.052;6.982;2022-09-27T14:38:12;18.70;99.90
16243;DHT22;11719;51.052;6.982;2022-09-27T14:40:54;18.70;99.90
16243;DHT22;11719;51.052;6.982;2022-09-27T14:43:23;18.70;99.90
16243;DHT22;11719;51.052;6.982;2022-09-27T14:45:52;18.60;99.90
16243;DHT22;11719;51.052;6.982;2022-09-27T14:48:27;18.60;99.90
16243;DHT22;11719;51.052;6.982;2022-09-27T14:51:19;18.50;99.90
16243;DHT22;11719;51.052;6.982;2022-09-27T14:53:52;18.60;99.90
16243;DHT22;11719;51.052;6.982;2022-09-27T14:56:25;18.70;99.90
16243;DHT22;11719;51.052;6.982;2022-09-27T14:58:55;18.80;99.90
16243;DHT22;11719;51.052;6.982;2022-09-27T15:01:27;18.80;99.90
16243;DHT22;11719;51.052;6.982;2022-09-27T15:03:56;18.80;99.90
16243;DHT22;11719;51.052;6.982;2022-09-27T15:06:27;18.80;99.90
16243;DHT22;11719;51.052;6.982;2022-09-27T15:08:53;18.80;99.90
16243;DHT22;11719;51.052;6.982;2022-09-27T15:11:19;18.70;99.90
16243;DHT22;11719;51.052;6.982;2022-09-27T15:13:49;18.70;99.90
16243;DHT22;11719;51.052;6.982;2022-09-27T15:16:20;18.80;99.90
16243;DHT22;11719;51.052;6.982;2022-09-27T15:19:23;18.80;99.90
16243;DHT22;11719;51.052;6.982;2022-09-27T15:21:54;18.90;99.90
16243;DHT22;11719;51.052;6.982;2022-09-27T15:24:38;18.90;99.90
16243;DHT22;11719;51.052;6.982;2022-09-27T15:27:21;18.90;99.90
16243;DHT22;11719;51.052;6.982;2022-09-27T15:29:51;18.90;99.90
16243;DHT22;11719;51.052;6.982;2022-09-27T15:32:21;18.90;99.90
16243;DHT22;11719;51.052;6.982;2022-09-27T15:34:48;18.90;99.90
16243;DHT22;11719;51.052;6.982;2022-09-27T15:37:34;18.80;99.90
16243;DHT22;11719;51.052;6.982;2022-09-27T15:43:25;18.80;99.90
16243;DHT22;11719;51.052;6.982;2022-09-27T15:46:04;18.80;99.90
16243;DHT22;11719;51.052;6.982;2022-09-27T15:51:56;18.50;99.90
16243;DHT22;11719;51.052;6.982;2022-09-27T15:54:25;18.20;99.90
16243;DHT22;11719;51.052;6.982;2022-09-27T15:56:55;18.20;99.90
16243;DHT22;11719;51.052;6.982;2022-09-27T15:59:23;18.10;99.90
16243;DHT22;11719;51.052;6.982;2022-09-27T16:01:56;18.30;99.90
16243;DHT22;11719;51.052;6.982;2022-09-27T16:04:24;18.50;99.90
16243;DHT22;11719;51.052;6.982;2022-09-27T16:06:52;18.50;99.90
16243;DHT22;11719;51.052;6.982;2022-09-27T16:09:20;18.50;99.90
16243;DHT22;11719;51.052;6.982;2022-09-27T16:11:49;18.50;99.90
16243;DHT22;11719;51.052;6.982;2022-09-27T16:14:16;18.60;99.90
16243;DHT22;11719;51.052;6.982;2022-09-27T16:16:45;18.50;99.90
16243;DHT22;11719;51.052;6.982;2022-09-27T16:19:13;18.70;99.90
16243;DHT22;11719;51.052;6.982;2022-09-27T16:21:39;18.60;99.90
16243;DHT22;11719;51.052;6.982;2022-09-27T16:24:07;18.40;99.90
16243;DHT22;11719;51.052;6.982;2022-09-27T16:26:37;18.30;99.90
16243;DHT22;11719;51.052;6.982;2022-09-27T16:29:04;18.30;99.90
16243;DHT22;11719;51.052;6.982;2022-09-27T16:31:33;18.40;99.90
16243;DHT22;11719;51.052;6.982;2022-09-27T16:34:00;18.50;99.90
16243;DHT22;11719;51.052;6.982;2022-09-27T16:36:26;18.40;99.90
16243;DHT22;11719;51.052;6.982;2022-09-27T16:38:52;18.30;99.90
16243;DHT22;11719;51.052;6.982;2022-09-27T16:41:19;18.00;99.90
16243;DHT22;11719;51.052;6.982;2022-09-27T16:43:47;17.90;99.90
16243;DHT22;11719;51.052;6.982;2022-09-27T16:46:13;17.50;99.90
16243;DHT22;11719;51.052;6.982;2022-09-27T16:48:43;17.50;99.90
16243;DHT22;11719;51.052;6.982;2022-09-27T16:51:19;17.60;99.90
16243;DHT22;11719;51.052;6.982;2022-09-27T16:54:05;17.60;99.90
16243;DHT22;11719;51.052;6.982;2022-09-27T16:56:33;17.70;99.90
16243;DHT22;11719;51.052;6.982;2022-09-27T16:59:00;17.60;99.90
16243;DHT22;11719;51.052;6.982;2022-09-27T17:01:32;17.50;99.90
16243;DHT22;11719;51.052;6.982;2022-09-27T17:03:59;17.20;99.90
16243;DHT22;11719;51.052;6.982;2022-09-27T17:06:25;17.10;99.90
16243;DHT22;11719;51.052;6.982;2022-09-27T17:08:56;17.00;99.90
16243;DHT22;11719;51.052;6.982;2022-09-27T17:11:22;17.00;99.90
16243;DHT22;11719;51.052;6.982;2022-09-27T17:13:53;17.10;99.90
16243;DHT22;11719;51.052;6.982;2022-09-27T17:16:20;17.10;99.90
16243;DHT22;11719;51.052;6.982;2022-09-27T17:18:46;17.10;99.90
16243;DHT22;11719;51.052;6.982;2022-09-27T17:21:12;17.00;99.90
16243;DHT22;11719;51.052;6.982;2022-09-27T17:23:39;17.00;99.90
16243;DHT22;11719;51.052;6.982;2022-09-27T17:26:17;17.00;99.90
16243;DHT22;11719;51.052;6.982;2022-09-27T17:28:45;17.00;99.90
16243;DHT22;11719;51.052;6.982;2022-09-27T17:31:12;16.90;99.90
16243;DHT22;11719;51.052;6.982;2022-09-27T17:33:45;16.90;99.90
16243;DHT22;11719;51.052;6.982;2022-09-27T17:36:24;16.90;99.90
16243;DHT22;11719;51.052;6.982;2022-09-27T17:38:52;16.80;99.90
16243;DHT22;11719;51.052;6.982;2022-09-27T17:41:20;16.80;99.90
16243;DHT22;11719;51.052;6.982;2022-09-27T17:43:57;16.80;99.90
16243;DHT22;11719;51.052;6.982;2022-09-27T17:46:29;16.80;99.90
16243;DHT22;11719;51.052;6.982;2022-09-27T17:48:57;16.80;99.90
16243;DHT22;11719;51.052;6.982;2022-09-27T17:51:44;16.80;99.90
16243;DHT22;11719;51.052;6.982;2022-09-27T17:54:12;16.90;99.90
16243;DHT22;11719;51.052;6.982;2022-09-27T17:56:39;16.80;99.90
16243;DHT22;11719;51.052;6.982;2022-09-27T17:59:08;16.80;99.90
16243;DHT22;11719;51.052;6.982;2022-09-27T18:01:35;16.70;99.90
16243;DHT22;11719;51.052;6.982;2022-09-27T18:04:06;16.60;99.90
16243;DHT22;11719;51.052;6.982;2022-09-27T18:06:39;16.60;99.90
16243;DHT22;11719;51.052;6.982;2022-09-27T18:09:08;16.60;99.90
16243;DHT22;11719;51.052;6.982;2022-09-27T18:11:36;16.50;99.90
16243;DHT22;11719;51.052;6.982;2022-09-27T18:14:03;16.30;99.90
16243;DHT22;11719;51.052;6.982;2022-09-27T18:16:31;16.00;99.90
16243;DHT22;11719;51.052;6.982;2022-09-27T18:19:02;15.80;99.90
16243;DHT22;11719;51.052;6.982;2022-09-27T18:21:29;15.70;99.90
16243;DHT22;11719;51.052;6.982;2022-09-27T18:23:57;15.90;99.90
16243;DHT22;11719;51.052;6.982;2022-09-27T18:26:26;15.80;99.90
16243;DHT22;11719;51.052;6.982;2022-09-27T18:28:54;16.00;99.90
16243;DHT22;11719;51.052;6.982;2022-09-27T18:31:24;15.90;99.90
16243;DHT22;11719;51.052;6.982;2022-09-27T18:33:50;16.00;99.90
16243;DHT22;11719;51.052;6.982;2022-09-27T18:36:18;16.10;99.90
16243;DHT22;11719;51.052;6.982;2022-09-27T18:38:50;16.40;99.90
16243;DHT22;11719;51.052;6.982;2022-09-27T18:41:25;16.80;99.90
16243;DHT22;11719;51.052;6.982;2022-09-27T18:44:00;16.90;99.90
16243;DHT22;11719;51.052;6.982;2022-09-27T18:46:33;17.10;99.90